Burt, Iowa
Current Conditions -  °F | °C
As of 9:35 AM on Monday 22 Dec 2014 (Local Time) from KAXA Reporting Station
Unknown Precip Unknown Precip  
Wind Chill: 28°   Ceiling: 400
Heat Index: 37°   Visibility: 3mi
Dew Point: 37°   Wind: 17mph
Humidity: 100%   Direction: 150°SSE
Pressure: 29.58"   Gusts: NA
Location:  43.2°N, 94.22°W
Report Text: KAXA 221535Z AUTO 15015KT 3SM -UP OVC004 03/03 A2958 RMK AO2
Loading
Personal Weather Stations






























Interactive Weather Map New forecast layout! Learn more

10-Day Weather Forecast

Advertisements
Track Severe Weather on mobile